Time;durP1;ratioP1;P1;durP2;ratioP2;P2;SDS_P1;SDS_P2;PMS_P1;PMS_P2;Temp;Humidity;BMP_temperature;BMP_pressure;BME280_temperature;BME280_humidity;BME280_pressure;Samples;Min_cycle;Max_cycle;Signal;HPM_P1;HPM_P2
2022/09/16 00:01:53;;;;;;;5.20;1.40;;;;;;;20.91;70.00;92699.84;5091047;28;20048;-75
2022/09/16 00:04:20;;;;;;;5.75;1.50;;;;;;;21.00;69.76;92713.00;5090849;28;20557;-75
2022/09/16 00:06:47;;;;;;;5.28;1.77;;;;;;;21.00;69.64;92716.41;5091167;28;20054;-75
2022/09/16 00:09:13;;;;;;;3.15;1.60;;;;;;;20.93;69.46;92710.78;5091328;28;20044;-75
2022/09/16 00:11:40;;;;;;;3.35;1.35;;;;;;;21.01;69.60;92727.63;5090880;28;20043;-75
2022/09/16 00:14:09;;;;;;;5.13;2.75;;;;;;;21.02;69.37;92721.34;5091121;28;20097;-75
2022/09/16 00:16:36;;;;;;;4.60;1.38;;;;;;;20.85;68.66;92707.00;5091070;28;20052;-75
2022/09/16 00:19:03;;;;;;;4.18;1.48;;;;;;;21.02;69.10;92719.50;5091921;28;20039;-74
2022/09/16 00:21:30;;;;;;;4.18;1.77;;;;;;;21.01;68.87;92717.94;5090556;28;20051;-74
2022/09/16 00:23:57;;;;;;;4.50;1.52;;;;;;;21.08;68.70;92725.41;5090887;28;20040;-74
2022/09/16 00:26:24;;;;;;;4.25;1.58;;;;;;;21.07;68.79;92723.88;5090685;28;20121;-74
2022/09/16 00:28:51;;;;;;;7.07;1.75;;;;;;;21.06;69.02;92717.88;5090776;28;20048;-74
2022/09/16 00:31:19;;;;;;;3.45;1.50;;;;;;;21.04;69.56;92712.16;5090366;28;20044;-74
2022/09/16 00:33:46;;;;;;;4.07;1.45;;;;;;;20.98;71.61;92715.13;5090305;28;20048;-74
2022/09/16 00:36:15;;;;;;;6.47;1.90;;;;;;;20.91;72.64;92724.13;5090657;28;20093;-74
2022/09/16 00:38:42;;;;;;;6.07;2.13;;;;;;;20.75;73.29;92726.19;5090223;28;20453;-74
2022/09/16 00:41:15;;;;;;;5.43;2.58;;;;;;;20.59;75.43;92717.03;5090680;28;20454;-74
2022/09/16 00:43:54;;;;;;;7.43;2.30;;;;;;;20.53;73.63;92714.50;5090313;28;20060;-74
2022/09/16 00:46:30;;;;;;;8.73;2.55;;;;;;;20.52;74.92;92717.38;5090577;28;20052;-75
2022/09/16 00:48:57;;;;;;;4.50;2.15;;;;;;;20.46;75.03;92716.66;5090362;28;20048;-74
2022/09/16 00:51:25;;;;;;;6.78;2.42;;;;;;;20.36;77.15;92722.06;5090393;28;20094;-74
2022/09/16 00:53:56;;;;;;;5.38;2.00;;;;;;;20.30;75.41;92718.72;5090331;28;20040;-74
2022/09/16 00:56:26;;;;;;;5.30;2.85;;;;;;;20.06;79.28;92714.38;5090261;28;20043;-74
2022/09/16 00:59:02;;;;;;;4.03;1.80;;;;;;;20.06;78.45;92731.81;5090382;28;20119;-74
2022/09/16 01:01:30;;;;;;;;;;;;;;;19.80;80.75;92735.50;5090563;28;20487;-74
2022/09/16 01:04:03;;;;;;;7.28;2.00;;;;;;;19.68;80.64;92727.31;5090225;28;20302;-74
2022/09/16 01:06:32;;;;;;;3.58;1.90;;;;;;;19.71;78.98;92718.91;5090217;28;20066;-74
2022/09/16 01:09:00;;;;;;;5.88;1.85;;;;;;;19.79;78.75;92731.34;5089780;28;20085;-75
2022/09/16 01:11:27;;;;;;;4.53;1.35;;;;;;;19.86;78.38;92749.25;5090163;28;20491;-74
2022/09/16 01:14:51;;;;;;;6.10;2.55;;;;;;;19.88;78.49;92745.31;5090048;28;20047;-74
2022/09/16 01:16:46;;;;;;;4.25;1.58;;;;;;;19.90;77.08;92747.63;5089307;28;20087;-74
2022/09/16 01:19:29;;;;;;;5.78;1.95;;;;;;;19.96;77.87;92740.53;5091804;28;20035;-74
2022/09/16 01:22:07;;;;;;;4.10;1.83;;;;;;;20.04;76.75;92737.31;5089808;28;20048;-74
2022/09/16 01:24:50;;;;;;;5.85;2.30;;;;;;;19.96;76.42;92723.09;5089556;28;20503;-74
2022/09/16 01:27:49;;;;;;;2.92;1.65;;;;;;;20.07;76.46;92730.75;5089692;28;20055;-74
2022/09/16 01:30:38;;;;;;;3.88;1.77;;;;;;;20.06;76.89;92731.81;5089700;28;20048;-74
2022/09/16 01:33:08;;;;;;;6.95;2.00;;;;;;;20.03;76.02;92733.94;5089768;28;20094;-74
2022/09/16 01:35:53;;;;;;;4.68;1.67;;;;;;;20.05;74.87;92732.88;5089366;28;20048;-74
2022/09/16 01:38:40;;;;;;;5.13;2.05;;;;;;;20.05;73.74;92731.06;5089097;28;20098;-74
2022/09/16 01:41:13;;;;;;;5.07;1.30;;;;;;;20.06;72.70;92716.19;5089833;28;20044;-74
2022/09/16 01:43:49;;;;;;;4.15;1.42;;;;;;;20.15;72.40;92736.13;5089481;28;20044;-74
2022/09/16 01:46:23;;;;;;;4.72;1.80;;;;;;;20.18;71.74;92726.22;5089494;28;20048;-74
2022/09/16 01:48:56;;;;;;;8.10;1.67;;;;;;;20.25;70.98;92727.41;5089085;28;20051;-74
2022/09/16 01:51:31;;;;;;;6.38;1.60;;;;;;;20.31;69.59;92719.53;5088936;28;20135;-75
2022/09/16 01:54:05;;;;;;;5.40;1.45;;;;;;;20.37;68.97;92716.53;5088929;28;20123;-75
2022/09/16 01:56:37;;;;;;;5.32;1.60;;;;;;;20.40;68.92;92700.34;5089095;28;20048;-74
2022/09/16 01:59:09;;;;;;;7.32;2.15;;;;;;;20.47;68.81;92688.75;5088878;28;20572;-75
2022/09/16 02:01:42;;;;;;;4.97;1.88;;;;;;;20.55;67.73;92685.53;5089165;28;20047;-75
2022/09/16 02:04:13;;;;;;;2.75;1.67;;;;;;;20.55;67.91;92685.53;5089159;28;20461;-75
2022/09/16 02:06:42;;;;;;;4.72;1.60;;;;;;;20.61;67.30;92687.00;5088634;28;20636;-75
2022/09/16 02:09:14;;;;;;;4.72;1.38;;;;;;;20.64;67.51;92683.03;5089152;28;20044;-75
2022/09/16 02:11:44;;;;;;;5.22;1.38;;;;;;;20.72;67.49;92679.75;5088811;28;20139;-75
2022/09/16 02:14:17;;;;;;;5.93;1.98;;;;;;;20.71;67.53;92678.22;5088973;28;20093;-75
2022/09/16 02:16:49;;;;;;;6.10;1.88;;;;;;;20.78;67.49;92690.91;5088883;28;20048;-75
2022/09/16 02:19:22;;;;;;;6.10;1.58;;;;;;;20.76;67.06;92693.78;5090879;28;20073;-75
2022/09/16 02:21:52;;;;;;;7.82;1.67;;;;;;;20.76;67.82;92701.63;5103728;27;20047;-73
2022/09/16 02:24:22;;;;;;;6.68;1.80;;;;;;;20.71;67.38;92696.47;5130286;27;20096;-73
2022/09/16 02:26:54;;;;;;;8.00;1.90;;;;;;;20.75;67.49;92694.88;5130179;27;20051;-74
2022/09/16 02:29:24;;;;;;;9.60;2.08;;;;;;;20.76;66.76;92695.63;5129786;27;20047;-74
2022/09/16 02:31:58;;;;;;;7.57;2.63;;;;;;;20.81;67.05;92691.09;5129871;27;20458;-74
2022/09/16 02:34:30;;;;;;;5.72;1.60;;;;;;;20.80;66.88;92686.94;5130019;27;20042;-74
2022/09/16 02:37:04;;;;;;;4.63;1.60;;;;;;;20.80;66.51;92694.78;5130033;28;20104;-74
2022/09/16 02:39:36;;;;;;;3.88;1.73;;;;;;;20.81;66.12;92700.75;5129884;28;20092;-74
2022/09/16 02:42:03;;;;;;;4.85;2.05;;;;;;;20.80;65.66;92694.78;5129536;27;20130;-74
2022/09/16 02:44:31;;;;;;;7.28;1.83;;;;;;;20.77;65.45;92687.50;5133629;27;20047;-74
2022/09/16 02:47:04;;;;;;;6.05;1.67;;;;;;;20.78;65.44;92699.50;5134232;27;20480;-74
2022/09/16 02:49:41;;;;;;;5.18;1.60;;;;;;;20.82;65.31;92707.53;5134307;27;20096;-73
2022/09/16 02:52:16;;;;;;;7.50;1.88;;;;;;;20.76;65.72;92706.84;5134019;27;20547;-73
2022/09/16 02:54:50;;;;;;;7.00;1.75;;;;;;;20.58;67.46;92705.03;5133800;27;20494;-73
2022/09/16 02:57:17;;;;;;;5.18;1.50;;;;;;;20.60;68.67;92714.13;5133837;27;20043;-74
2022/09/16 02:59:44;;;;;;;6.90;2.08;;;;;;;20.60;69.59;92715.97;5122384;27;20044;-74
2022/09/16 03:02:13;;;;;;;10.13;1.83;;;;;;;20.52;70.10;92720.78;5130832;27;20047;-74
2022/09/16 03:04:40;;;;;;;4.03;1.88;;;;;;;20.47;70.50;92715.63;5133701;27;20501;-74
2022/09/16 03:07:09;;;;;;;6.95;2.17;;;;;;;20.43;70.66;92725.09;5133626;27;20051;-74
2022/09/16 03:09:40;;;;;;;7.03;2.10;;;;;;;20.46;71.05;92732.31;5133690;27;20047;-74
2022/09/16 03:12:45;;;;;;;8.57;2.42;;;;;;;20.53;69.40;92734.59;5134058;27;20047;-74
2022/09/16 03:15:47;;;;;;;5.97;1.92;;;;;;;20.54;69.05;92729.09;5133885;27;20040;-74
2022/09/16 03:18:29;;;;;;;5.60;2.03;;;;;;;20.42;70.85;92753.00;5112236;27;20097;-74
2022/09/16 03:21:03;;;;;;;6.28;2.35;;;;;;;20.31;72.43;92743.75;5118897;27;20043;-74
2022/09/16 03:23:43;;;;;;;5.35;2.20;;;;;;;20.47;72.15;92743.53;5133658;27;20039;-74
2022/09/16 03:26:17;;;;;;;11.35;3.53;;;;;;;20.54;72.65;92738.75;5133652;27;20039;-74
2022/09/16 03:28:54;;;;;;;6.00;2.95;;;;;;;20.56;72.21;92752.28;5133108;27;20051;-74
2022/09/16 03:31:28;;;;;;;14.27;3.72;;;;;;;20.55;73.39;92738.47;5133440;27;20039;-74
2022/09/16 03:34:05;;;;;;;12.65;3.33;;;;;;;20.58;72.23;92734.50;5133425;27;20055;-74
2022/09/16 03:36:37;;;;;;;12.52;3.10;;;;;;;20.58;72.55;92721.47;5133533;27;20047;-74
2022/09/16 03:39:04;;;;;;;8.15;2.83;;;;;;;20.46;72.33;92703.63;5132980;27;20096;-74
2022/09/16 03:41:33;;;;;;;7.28;2.35;;;;;;;20.54;72.88;92713.44;5133256;27;20047;-74
2022/09/16 03:44:00;;;;;;;7.95;2.35;;;;;;;20.49;72.53;92710.91;5132842;27;20047;-74
2022/09/16 03:46:28;;;;;;;9.43;2.35;;;;;;;20.46;73.19;92705.47;5110002;27;20102;-74
2022/09/16 03:48:55;;;;;;;6.43;2.42;;;;;;;20.44;72.71;92695.31;5127433;27;20130;-74
2022/09/16 03:51:23;;;;;;;10.05;2.33;;;;;;;20.46;71.90;92695.03;5112393;27;20054;-74
2022/09/16 03:53:50;;;;;;;7.25;2.63;;;;;;;20.42;72.11;92692.22;5125465;27;20043;-74
2022/09/16 03:56:17;;;;;;;11.00;3.60;;;;;;;20.41;72.68;92691.44;5113232;27;20164;-75
2022/09/16 03:58:44;;;;;;;8.00;2.45;;;;;;;20.36;73.07;92688.16;5091321;28;20044;-74
2022/09/16 04:01:10;;;;;;;7.18;2.67;;;;;;;20.26;73.83;92683.84;5091499;28;20135;-74
2022/09/16 04:03:37;;;;;;;7.00;2.25;;;;;;;20.29;73.14;92683.28;5108599;27;20044;-74
2022/09/16 04:06:04;;;;;;;7.40;2.50;;;;;;;20.24;73.73;92688.56;5091313;28;20076;-74
2022/09/16 04:08:33;;;;;;;8.50;2.28;;;;;;;20.23;74.17;92695.59;5091304;28;20043;-74
2022/09/16 04:11:01;;;;;;;7.05;2.25;;;;;;;20.18;74.66;92689.72;5091058;28;20798;-74
2022/09/16 04:13:30;;;;;;;8.60;2.20;;;;;;;20.10;74.96;92702.31;5091307;28;20117;-74
2022/09/16 04:15:57;;;;;;;11.95;2.88;;;;;;;20.07;75.48;92697.66;5091163;28;20418;-74
2022/09/16 04:18:24;;;;;;;7.68;2.17;;;;;;;20.02;75.82;92693.31;5091149;28;20450;-74
2022/09/16 04:20:51;;;;;;;8.35;2.20;;;;;;;20.02;76.37;92703.72;5103298;28;20048;-74
2022/09/16 04:23:17;;;;;;;9.85;3.05;;;;;;;20.01;76.89;92702.16;5110311;27;20043;-74
2022/09/16 04:25:54;;;;;;;6.95;2.60;;;;;;;19.87;77.64;92699.44;5122509;27;20077;-74
2022/09/16 04:28:21;;;;;;;10.57;2.90;;;;;;;19.81;79.39;92708.38;5103463;27;20107;-74
2022/09/16 04:30:47;;;;;;;12.07;2.50;;;;;;;19.73;80.54;92707.16;5095678;27;20044;-74
2022/09/16 04:33:14;;;;;;;12.65;3.28;;;;;;;19.74;80.24;92710.56;5090698;28;20056;-74
2022/09/16 04:35:41;;;;;;;10.68;2.65;;;;;;;19.75;80.64;92707.69;5124719;27;20047;-74
2022/09/16 04:38:07;;;;;;;12.85;3.17;;;;;;;19.62;81.59;92700.53;5129431;27;20078;-74
2022/09/16 04:40:34;;;;;;;11.75;2.90;;;;;;;19.63;83.40;92705.47;5124940;27;20047;-74
2022/09/16 04:43:02;;;;;;;13.95;4.32;;;;;;;19.62;83.18;92703.91;5129047;27;20088;-74
2022/09/16 04:45:29;;;;;;;13.95;4.25;;;;;;;19.62;81.71;92700.53;5132045;27;20400;-75
2022/09/16 04:47:56;;;;;;;10.50;3.78;;;;;;;19.60;83.24;92710.44;5131910;27;20043;-74
2022/09/16 04:50:23;;;;;;;20.15;5.00;;;;;;;19.58;84.35;92712.56;5132086;27;20054;-76
2022/09/16 04:52:50;;;;;;;13.07;4.82;;;;;;;19.42;87.09;92714.53;5131514;27;20577;-75
2022/09/16 04:55:17;;;;;;;14.43;4.85;;;;;;;19.40;87.10;92721.88;5132001;27;20059;-75
2022/09/16 04:57:44;;;;;;;18.23;6.18;;;;;;;19.42;84.52;92717.16;5131612;27;20051;-75
2022/09/16 05:00:13;;;;;;;19.02;5.85;;;;;;;19.45;85.07;92711.41;5129274;27;20076;-75
2022/09/16 05:02:40;;;;;;;11.05;3.85;;;;;;;19.30;83.88;92686.31;5102159;27;20505;-75
2022/09/16 05:05:08;;;;;;;12.77;3.53;;;;;;;19.56;83.87;92709.44;5122121;27;20395;-75
2022/09/16 05:07:34;;;;;;;17.38;3.70;;;;;;;19.60;84.29;92707.84;5122630;27;20093;-75
2022/09/16 05:10:01;;;;;;;18.10;4.18;;;;;;;19.69;83.12;92700.97;5108966;27;20047;-74
2022/09/16 05:12:28;;;;;;;11.95;3.83;;;;;;;19.80;83.75;92703.47;5122003;27;20050;-75
2022/09/16 05:14:55;;;;;;;13.25;3.63;;;;;;;19.87;83.00;92698.69;5125947;27;20482;-74
2022/09/16 05:17:23;;;;;;;19.65;3.25;;;;;;;19.95;83.37;92697.28;5112806;27;20447;-74
2022/09/16 05:19:49;;;;;;;16.75;3.42;;;;;;;20.01;82.49;92701.41;5118746;27;20039;-75
2022/09/16 05:22:16;;;;;;;12.27;2.97;;;;;;;20.13;80.71;92700.97;5109690;27;20043;-74
2022/09/16 05:24:43;;;;;;;16.90;4.25;;;;;;;20.22;80.28;92695.91;5114230;27;20043;-74
2022/09/16 05:27:10;;;;;;;10.95;3.33;;;;;;;20.26;80.29;92689.84;5109361;27;20131;-74
2022/09/16 05:29:37;;;;;;;11.98;2.97;;;;;;;20.33;79.26;92686.88;5110477;27;20040;-74
2022/09/16 05:32:04;;;;;;;18.75;3.35;;;;;;;20.38;80.14;92693.84;5121218;27;20104;-74
2022/09/16 05:34:32;;;;;;;18.73;4.55;;;;;;;20.45;80.03;92686.44;5116725;27;20555;-74
2022/09/16 05:36:59;;;;;;;16.00;2.78;;;;;;;20.49;80.17;92687.41;5113220;27;20043;-75
2022/09/16 05:39:26;;;;;;;13.23;2.70;;;;;;;20.52;80.28;92684.25;5126952;27;20046;-74
2022/09/16 05:41:55;;;;;;;12.02;3.25;;;;;;;20.56;79.44;92681.84;5129115;27;20043;-74
2022/09/16 05:44:22;;;;;;;16.05;3.15;;;;;;;20.61;79.43;92684.38;5125297;27;20073;-75
2022/09/16 05:46:48;;;;;;;12.15;2.90;;;;;;;20.65;79.51;92680.13;5119734;27;20395;-75
2022/09/16 05:49:19;;;;;;;8.98;2.85;;;;;;;20.73;80.01;92681.31;5130720;27;20095;-74
2022/09/16 05:51:49;;;;;;;15.30;2.95;;;;;;;20.78;80.35;92694.28;5130369;27;20057;-75
2022/09/16 05:54:17;;;;;;;8.18;2.95;;;;;;;20.89;78.45;92696.75;5130420;27;20047;-74
2022/09/16 05:56:44;;;;;;;6.72;2.58;;;;;;;20.96;77.78;92689.31;5125114;27;20054;-74
2022/09/16 05:59:12;;;;;;;13.82;3.10;;;;;;;21.01;78.92;92684.00;5117523;27;20495;-74
2022/09/16 06:01:38;;;;;;;9.40;3.72;;;;;;;21.15;77.05;92688.50;5127362;27;20498;-74
2022/09/16 06:04:07;;;;;;;14.13;3.25;;;;;;;21.25;80.64;92685.69;5106933;27;20043;-75
2022/09/16 06:06:36;;;;;;;11.82;3.17;;;;;;;21.40;78.92;92689.06;5123365;27;20039;-75
2022/09/16 06:09:07;;;;;;;12.38;3.58;;;;;;;21.46;77.98;92683.47;5130378;27;20103;-75
2022/09/16 06:11:37;;;;;;;10.63;3.28;;;;;;;21.57;78.90;92689.28;5130646;27;20053;-75
2022/09/16 06:14:05;;;;;;;9.65;2.95;;;;;;;21.65;79.66;92676.59;5129858;27;20039;-75
2022/09/16 06:16:33;;;;;;;14.15;2.97;;;;;;;21.72;80.69;92672.53;5120218;27;20047;-75
2022/09/16 06:19:01;;;;;;;12.10;3.35;;;;;;;21.79;78.03;92666.16;5126442;27;20569;-75
2022/09/16 06:21:28;;;;;;;12.13;3.65;;;;;;;21.91;78.61;92666.41;5118996;27;20111;-75
2022/09/16 06:23:56;;;;;;;10.80;4.40;;;;;;;21.98;78.39;92663.41;5130196;27;20047;-75
2022/09/16 06:26:26;;;;;;;19.92;5.10;;;;;;;22.12;78.15;92655.53;5129796;27;20088;-75
2022/09/16 06:28:53;;;;;;;13.95;3.67;;;;;;;22.13;78.03;92651.84;5128746;27;20100;-75
2022/09/16 06:31:23;;;;;;;16.95;4.57;;;;;;;22.30;79.48;92656.41;5114646;27;20043;-75
2022/09/16 06:33:50;;;;;;;11.18;4.70;;;;;;;22.43;81.18;92662.69;5114767;27;20529;-75
2022/09/16 06:36:19;;;;;;;11.48;4.28;;;;;;;22.42;81.14;92650.66;5126588;27;20039;-75
2022/09/16 06:38:47;;;;;;;13.43;4.13;;;;;;;22.48;82.07;92661.78;5128192;28;20104;-75
2022/09/16 06:41:16;;;;;;;14.95;3.70;;;;;;;22.40;81.19;92665.91;5130011;28;20055;-75
2022/09/16 06:43:44;;;;;;;14.23;5.68;;;;;;;22.38;81.15;92665.41;5089522;28;20044;-75
2022/09/16 06:46:14;;;;;;;18.23;3.78;;;;;;;22.42;82.07;92674.22;5088360;28;20514;-75
2022/09/16 06:48:43;;;;;;;14.73;3.85;;;;;;;22.67;77.85;92674.69;5089447;28;20105;-75
2022/09/16 06:51:11;;;;;;;12.43;2.85;;;;;;;22.80;78.67;92668.63;5088859;28;20040;-75
2022/09/16 06:53:44;;;;;;;12.20;2.72;;;;;;;23.06;73.61;92667.22;5089660;28;20059;-75
2022/09/16 06:56:12;;;;;;;12.50;2.67;;;;;;;23.30;71.61;92677.34;5089526;28;20491;-76
2022/09/16 06:58:47;;;;;;;6.95;2.60;;;;;;;23.53;71.87;92673.91;5088518;28;20116;-76
2022/09/16 07:01:19;;;;;;;11.23;3.03;;;;;;;23.76;68.51;92674.59;5088953;28;20139;-76
2022/09/16 07:03:47;;;;;;;10.50;3.10;;;;;;;24.06;66.93;92676.63;5090025;28;20507;-75
2022/09/16 07:06:15;;;;;;;12.30;3.50;;;;;;;24.39;69.47;92674.34;5122704;28;20049;-75
2022/09/16 07:08:43;;;;;;;13.80;3.60;;;;;;;24.71;65.41;92684.66;5131107;28;20059;-75
2022/09/16 07:11:12;;;;;;;17.73;3.92;;;;;;;24.90;61.16;92681.72;5129934;28;20044;-75
2022/09/16 07:13:39;;;;;;;14.77;4.50;;;;;;;25.00;61.75;92643.06;5129480;28;20056;-75
2022/09/16 07:16:08;;;;;;;15.77;4.80;;;;;;;25.51;57.10;92677.38;5129359;28;20047;-75
2022/09/16 07:18:37;;;;;;;14.25;4.40;;;;;;;25.75;57.71;92676.78;5131027;28;20035;-75
2022/09/16 07:21:06;;;;;;;11.45;2.28;;;;;;;25.94;54.04;92666.94;5116634;28;20027;-75
2022/09/16 07:23:36;;;;;;;17.15;2.40;;;;;;;26.06;50.74;92664.38;5130726;28;20506;-75
2022/09/16 07:26:05;;;;;;;10.90;2.33;;;;;;;26.31;51.40;92669.81;5130509;28;20548;-75
2022/09/16 07:28:32;;;;;;;6.00;1.73;;;;;;;26.44;48.38;92665.38;5130873;27;20078;-75
2022/09/16 07:31:02;;;;;;;7.85;1.90;;;;;;;26.62;48.32;92670.47;5134121;27;20046;-75
2022/09/16 07:33:29;;;;;;;8.40;2.85;;;;;;;26.83;48.80;92669.66;5128301;27;20044;-75
2022/09/16 07:36:00;;;;;;;7.78;1.70;;;;;;;27.01;47.15;92657.09;5128986;27;20047;-76
2022/09/16 07:38:27;;;;;;;13.07;2.22;;;;;;;27.18;46.35;92654.25;5121784;27;20121;-75
2022/09/16 07:40:53;;;;;;;7.50;1.55;;;;;;;27.31;46.13;92647.13;5133341;27;20050;-75
2022/09/16 07:43:21;;;;;;;10.73;1.70;;;;;;;27.48;45.19;92648.00;5132973;27;20634;-75
2022/09/16 07:45:55;;;;;;;11.68;2.42;;;;;;;27.53;43.67;92647.78;5133225;27;20104;-75
2022/09/16 07:48:21;;;;;;;7.05;1.60;;;;;;;27.69;43.46;92652.44;5132672;27;20047;-76
2022/09/16 07:50:54;;;;;;;12.27;2.38;;;;;;;27.75;42.60;92645.84;5133172;27;20075;-74
2022/09/16 07:53:22;;;;;;;6.70;1.75;;;;;;;27.87;42.02;92637.13;5132652;27;20565;-75
2022/09/16 07:55:49;;;;;;;7.80;2.10;;;;;;;28.06;42.87;92641.81;5133072;27;20047;-75
2022/09/16 07:58:16;;;;;;;3.72;1.15;;;;;;;28.20;41.70;92624.84;5132945;27;20046;-75
2022/09/16 08:00:43;;;;;;;6.28;1.58;;;;;;;28.38;41.04;92630.63;5132460;27;20096;-75
2022/09/16 08:03:10;;;;;;;6.53;1.55;;;;;;;28.50;40.77;92646.44;5132547;27;20502;-75
2022/09/16 08:05:37;;;;;;;15.52;1.80;;;;;;;28.46;39.86;92631.59;5132817;27;20047;-75
2022/09/16 08:08:03;;;;;;;8.80;2.38;;;;;;;28.55;41.00;92632.22;5132323;27;20494;-75
2022/09/16 08:10:31;;;;;;;5.82;1.42;;;;;;;28.75;41.21;92637.63;5132847;27;20047;-75
2022/09/16 08:12:58;;;;;;;7.35;1.63;;;;;;;28.67;40.02;92636.66;5132799;27;20092;-75
2022/09/16 08:15:25;;;;;;;6.45;1.95;;;;;;;28.73;39.52;92624.75;5128125;27;20043;-75
2022/09/16 08:17:52;;;;;;;6.95;1.30;;;;;;;28.94;39.25;92631.72;5132357;27;20044;-75
2022/09/16 08:20:19;;;;;;;8.57;1.50;;;;;;;29.03;39.31;92642.13;5118675;27;20055;-75
2022/09/16 08:22:46;;;;;;;9.25;1.40;;;;;;;29.18;38.59;92638.72;5131853;27;20130;-75
2022/09/16 08:25:12;;;;;;;10.95;1.40;;;;;;;29.12;38.71;92639.31;5132497;27;20436;-75
2022/09/16 08:27:41;;;;;;;6.18;1.75;;;;;;;29.13;38.31;92640.84;5132375;27;20067;-75
2022/09/16 08:30:09;;;;;;;7.05;1.30;;;;;;;29.23;39.04;92640.34;5132399;27;20103;-76
2022/09/16 08:32:36;;;;;;;9.63;2.03;;;;;;;29.20;39.27;92649.72;5131961;27;20047;-75
2022/09/16 08:35:03;;;;;;;9.02;1.40;;;;;;;29.19;38.03;92627.03;5122861;27;20112;-75
2022/09/16 08:37:30;;;;;;;8.95;1.45;;;;;;;29.27;38.06;92635.91;5119136;27;20043;-75
2022/09/16 08:39:56;;;;;;;9.27;1.25;;;;;;;29.26;39.29;92631.72;5131866;27;20099;-75
2022/09/16 08:42:38;;;;;;;6.18;1.40;;;;;;;29.09;39.25;92630.19;5131495;27;20051;-76
2022/09/16 08:45:19;;;;;;;7.22;1.45;;;;;;;28.89;39.05;92622.16;5106117;27;20088;-75
2022/09/16 08:48:00;;;;;;;8.98;1.38;;;;;;;28.83;38.84;92638.59;5131589;27;20079;-75
2022/09/16 08:50:30;;;;;;;7.40;1.35;;;;;;;28.76;39.45;92636.50;5131955;27;20050;-75
2022/09/16 08:52:59;;;;;;;16.08;2.17;;;;;;;28.73;40.34;92635.31;5131926;27;20099;-75
2022/09/16 08:55:31;;;;;;;12.05;1.88;;;;;;;28.65;40.07;92644.19;5130110;27;20043;-75
2022/09/16 08:58:02;;;;;;;5.13;1.67;;;;;;;28.65;40.10;92641.53;5124409;27;20086;-75
2022/09/16 09:00:31;;;;;;;4.32;1.23;;;;;;;28.67;39.88;92640.09;5131324;27;20039;-75
2022/09/16 09:03:08;;;;;;;6.75;1.65;;;;;;;28.67;39.96;92632.16;5131812;27;20140;-75
2022/09/16 09:05:45;;;;;;;12.30;2.55;;;;;;;28.83;40.33;92630.66;5123241;27;20040;-75
2022/09/16 09:08:28;;;;;;;7.63;1.70;;;;;;;28.92;40.04;92632.03;5127239;27;20050;-75
2022/09/16 09:11:02;;;;;;;11.25;1.70;;;;;;;28.89;40.06;92629.31;5131473;27;20047;-75
2022/09/16 09:13:40;;;;;;;8.25;1.65;;;;;;;29.00;39.59;92626.94;5131589;27;20039;-76
2022/09/16 09:16:16;;;;;;;5.53;2.00;;;;;;;28.88;39.04;92625.91;5127506;27;20047;-75
2022/09/16 09:18:53;;;;;;;11.85;1.65;;;;;;;28.79;38.55;92599.59;5130626;27;20092;-75
2022/09/16 09:21:29;;;;;;;8.93;1.85;;;;;;;28.98;39.97;92619.34;5118706;27;20047;-76
2022/09/16 09:24:18;;;;;;;10.48;2.00;;;;;;;29.06;39.70;92617.63;5131100;27;20084;-76
2022/09/16 09:26:49;;;;;;;6.35;1.30;;;;;;;29.13;39.90;92617.81;5131288;27;20058;-75
2022/09/16 09:29:43;;;;;;;4.63;1.27;;;;;;;29.19;39.83;92629.69;5131089;27;20043;-75
2022/09/16 09:32:21;;;;;;;7.18;1.40;;;;;;;29.15;39.42;92634.09;5129801;27;20051;-75
2022/09/16 09:35:05;;;;;;;9.80;1.45;;;;;;;29.08;39.10;92629.41;5090471;28;20106;-76
2022/09/16 09:37:51;;;;;;;5.97;1.37;;;;;;;29.07;39.16;92638.44;5114385;27;20091;-75
2022/09/16 09:40:19;;;;;;;;;;;;;;;29.04;39.37;92633.06;5131486;27;20283;-77
2022/09/16 09:42:52;;;;;;;9.43;1.95;;;;;;;28.93;38.98;92632.81;5130902;27;19919;-76
2022/09/16 09:45:23;;;;;;;6.88;1.95;;;;;;;28.84;40.09;92643.53;5130910;27;20099;-75
2022/09/16 09:47:56;;;;;;;14.95;2.78;;;;;;;28.68;39.63;92648.78;5131086;27;20051;-75
2022/09/16 09:50:28;;;;;;;6.97;2.45;;;;;;;28.59;40.14;92662.13;5130791;27;20039;-75
2022/09/16 09:53:04;;;;;;;10.10;2.20;;;;;;;28.56;41.61;92665.47;5130357;27;20099;-76
2022/09/16 09:55:33;;;;;;;9.65;1.95;;;;;;;28.49;41.52;92668.69;5130688;27;20043;-76
2022/09/16 09:58:19;;;;;;;18.88;2.75;;;;;;;28.28;41.13;92669.63;5130566;27;20043;-76
2022/09/16 10:00:46;;;;;;;12.43;3.20;;;;;;;28.20;41.42;92677.66;5130297;27;20115;-75
2022/09/16 10:03:17;;;;;;;25.02;3.38;;;;;;;28.06;42.01;92686.72;5130749;27;20095;-76
2022/09/16 10:05:45;;;;;;;16.02;2.83;;;;;;;27.94;42.67;92705.97;5130221;27;20108;-75
2022/09/16 10:08:25;;;;;;;8.35;2.50;;;;;;;27.79;42.67;92723.25;5130656;27;20092;-75
2022/09/16 10:10:53;;;;;;;7.00;2.00;;;;;;;27.25;43.44;92763.72;5130524;27;20100;-76
2022/09/16 10:13:21;;;;;;;12.80;2.67;;;;;;;25.08;51.57;92771.03;5130597;27;20043;-78
2022/09/16 10:15:49;;;;;;;15.38;3.00;;;;;;;24.46;58.68;92796.50;5120636;27;20047;-76
2022/09/16 10:18:25;;;;;;;10.27;3.05;;;;;;;24.12;63.21;92811.88;5130535;27;20151;-77
2022/09/16 10:20:57;;;;;;;;;;;;;;;23.15;71.54;92856.66;5116040;27;20502;-76
2022/09/16 10:23:26;;;;;;;12.20;2.15;;;;;;;22.71;75.88;92851.06;5130015;27;19924;-75
2022/09/16 10:26:05;;;;;;;13.52;2.50;;;;;;;22.60;76.82;92855.75;5130341;27;20461;-75
2022/09/16 10:28:32;;;;;;;12.90;2.50;;;;;;;22.43;76.42;92872.00;5130352;27;20092;-76
2022/09/16 10:31:00;;;;;;;18.15;2.50;;;;;;;22.31;77.31;92869.88;5129889;27;20050;-76
2022/09/16 10:33:31;;;;;;;12.38;2.95;;;;;;;21.96;80.98;92864.25;5125608;27;20039;-77
2022/09/16 10:36:00;;;;;;;11.57;2.45;;;;;;;21.70;87.57;92862.88;5092125;28;20101;-75
2022/09/16 10:38:36;;;;;;;10.73;2.10;;;;;;;21.43;93.79;92885.22;5101538;27;20055;-76
2022/09/16 10:41:08;;;;;;;13.55;2.83;;;;;;;21.08;98.99;92887.31;5118714;28;20051;-76
2022/09/16 10:43:39;;;;;;;10.05;2.30;;;;;;;20.98;100.00;92887.47;5129650;28;20047;-74
2022/09/16 10:46:06;;;;;;;5.75;2.10;;;;;;;20.66;100.00;92869.59;5130118;28;20039;-75
2022/09/16 10:48:35;;;;;;;6.95;1.83;;;;;;;20.48;100.00;92863.28;5129734;28;20069;-75
2022/09/16 10:51:05;;;;;;;7.57;1.63;;;;;;;20.51;100.00;92862.69;5129835;28;20047;-75
2022/09/16 10:53:34;;;;;;;5.30;1.92;;;;;;;20.54;100.00;92856.94;5130153;28;20464;-75
2022/09/16 10:56:04;;;;;;;8.30;2.25;;;;;;;20.52;100.00;92840.00;5129788;28;20047;-75
2022/09/16 10:58:31;;;;;;;9.07;2.72;;;;;;;20.58;100.00;92831.06;5129411;28;20047;-75
2022/09/16 11:01:08;;;;;;;6.38;1.80;;;;;;;20.57;100.00;92800.81;5115689;28;20112;-75
2022/09/16 11:04:19;;;;;;;4.13;1.60;;;;;;;20.33;100.00;92770.34;5121965;28;20044;-75
2022/09/16 11:06:59;;;;;;;6.25;1.42;;;;;;;20.38;100.00;92775.50;5104371;27;20143;-74
2022/09/16 11:09:34;;;;;;;4.38;1.73;;;;;;;20.25;100.00;92769.13;5105077;27;20490;-74
2022/09/16 11:12:22;;;;;;;4.25;1.20;;;;;;;20.46;100.00;92750.59;5133863;27;20058;-74
2022/09/16 11:15:01;;;;;;;4.45;1.40;;;;;;;20.36;100.00;92741.06;5129514;27;20039;-74
2022/09/16 11:17:41;;;;;;;5.32;1.38;;;;;;;20.90;100.00;92743.47;5129836;27;20088;-75
2022/09/16 11:20:39;;;;;;;5.30;1.60;;;;;;;21.18;100.00;92730.47;5121492;27;20044;-75
2022/09/16 11:23:13;;;;;;;4.93;1.30;;;;;;;21.72;98.43;92724.06;5121704;27;20039;-75
2022/09/16 11:25:49;;;;;;;5.10;1.25;;;;;;;22.03;91.80;92729.44;5133299;27;20055;-74
2022/09/16 11:28:50;;;;;;;4.47;1.20;;;;;;;22.48;88.81;92725.38;5133693;27;20536;-75
2022/09/16 11:31:27;;;;;;;5.70;1.88;;;;;;;22.91;84.21;92718.16;5133174;27;20051;-74
2022/09/16 11:34:00;;;;;;;2.28;1.17;;;;;;;23.02;79.65;92705.56;5124769;27;20040;-74
2022/09/16 11:36:40;;;;;;;5.07;1.15;;;;;;;23.12;73.62;92705.31;5103781;27;20119;-75
2022/09/16 11:39:22;;;;;;;2.78;0.95;;;;;;;23.18;77.33;92703.31;5112239;27;20449;-75
2022/09/16 11:41:58;;;;;;;2.25;1.02;;;;;;;23.55;76.02;92705.84;5122878;27;20040;-75
2022/09/16 11:44:40;;;;;;;3.65;1.00;;;;;;;23.78;72.78;92695.25;5113084;27;20461;-75
2022/09/16 11:47:19;;;;;;;3.30;0.60;;;;;;;23.89;63.50;92701.75;5133376;27;21145;-75
2022/09/16 11:50:09;;;;;;;4.28;0.90;;;;;;;23.72;65.40;92689.38;5132734;27;20502;-75
2022/09/16 11:52:50;;;;;;;3.22;0.60;;;;;;;23.83;67.92;92676.75;5133158;27;20099;-75